createdAt,value
2023-03-30T00:00:38.360Z,96411.91
2023-03-30T00:03:06.186Z,96413.34
2023-03-30T00:05:36.126Z,96413.34
2023-03-30T00:08:03.878Z,96408.91
2023-03-30T00:10:32.733Z,96406.28
2023-03-30T00:13:00.268Z,96407.09
2023-03-30T00:15:27.852Z,96408.09
2023-03-30T00:17:55.498Z,96406.47
2023-03-30T00:20:23.580Z,96400.25
2023-03-30T00:22:51.459Z,96407.09
2023-03-30T00:25:19.405Z,96405.06
2023-03-30T00:27:48.256Z,96404.88
2023-03-30T00:30:18.163Z,96415.13
2023-03-30T00:32:48.135Z,96429.25
2023-03-30T00:35:15.975Z,96425.59
2023-03-30T00:37:45.486Z,96431.44
2023-03-30T00:40:17.684Z,96421.56
2023-03-30T00:42:45.657Z,96446.78
2023-03-30T00:45:20.743Z,96470.34
2023-03-30T00:47:53.432Z,96472.97
2023-03-30T00:50:22.795Z,96476.56
2023-03-30T00:52:53.514Z,96475.97
2023-03-30T00:55:23.109Z,96479.59
2023-03-30T00:57:52.379Z,96474.38
2023-03-30T01:00:22.597Z,96462.88
2023-03-30T01:02:55.884Z,96471.34
2023-03-30T01:05:25.033Z,96465.09
2023-03-30T01:07:53.260Z,96452.63
2023-03-30T01:10:22.103Z,96461.28
2023-03-30T01:12:50.042Z,96456.44
2023-03-30T01:15:17.958Z,96450.59
2023-03-30T01:18:00.634Z,96458.66
2023-03-30T01:20:56.862Z,96444.97
2023-03-30T01:24:04.401Z,96427.22
2023-03-30T01:26:46.922Z,96412.50
2023-03-30T01:29:24.891Z,96383.34
2023-03-30T01:32:30.806Z,96364.00
2023-03-30T01:35:16.933Z,96361.38
2023-03-30T01:38:05.285Z,96365.38
2023-03-30T01:40:41.305Z,96370.81
2023-03-30T01:43:17.130Z,96366.78
2023-03-30T01:45:47.149Z,96357.13
2023-03-30T01:48:19.334Z,96355.94
2023-03-30T01:50:52.748Z,96353.09
2023-03-30T01:53:26.861Z,96347.25
2023-03-30T01:55:59.086Z,96346.63
2023-03-30T01:58:31.843Z,96342.63
2023-03-30T02:01:02.538Z,96336.59
2023-03-30T02:03:33.709Z,96329.75
2023-03-30T02:06:06.146Z,96330.13
2023-03-30T02:08:37.288Z,96344.44
2023-03-30T02:11:07.692Z,96358.50
2023-03-30T02:13:38.036Z,96358.72
2023-03-30T02:16:10.704Z,96353.47
2023-03-30T02:18:39.061Z,96360.31
2023-03-30T02:21:06.921Z,96377.63
2023-03-30T02:23:39.500Z,96379.03
2023-03-30T02:26:08.837Z,96382.88
2023-03-30T02:28:36.719Z,96378.03
2023-03-30T02:31:05.576Z,96368.78
2023-03-30T02:33:47.906Z,96366.78
2023-03-30T02:36:30.629Z,96368.41
2023-03-30T02:39:17.640Z,96367.19
2023-03-30T02:42:06.702Z,96374.84
2023-03-30T02:44:43.749Z,96376.44
2023-03-30T02:47:15.073Z,96375.44
2023-03-30T02:49:54.229Z,96382.28
2023-03-30T02:52:37.529Z,96385.31
2023-03-30T02:55:14.160Z,96386.13
2023-03-30T02:57:55.644Z,96385.91
2023-03-30T03:00:29.302Z,96376.44
2023-03-30T03:03:01.195Z,96363.97
2023-03-30T03:05:32.453Z,96364.97
2023-03-30T03:07:59.971Z,96360.75
2023-03-30T03:10:27.493Z,96367.59
2023-03-30T03:12:56.302Z,96368.41
2023-03-30T03:15:23.790Z,96372.44
2023-03-30T03:17:51.521Z,96369.63
2023-03-30T03:20:19.964Z,96364.41
2023-03-30T03:22:47.537Z,96380.91
2023-03-30T03:25:15.400Z,96377.88
2023-03-30T03:27:42.907Z,96379.50
2023-03-30T03:30:13.427Z,96385.34
2023-03-30T03:32:41.052Z,96378.09
2023-03-30T03:35:09.349Z,96370.03
2023-03-30T03:37:36.916Z,96376.88
2023-03-30T03:40:06.196Z,96378.28
2023-03-30T03:42:33.720Z,96383.09
2023-03-30T03:45:01.222Z,96378.09
2023-03-30T03:47:30.177Z,96374.06
2023-03-30T03:49:57.723Z,96367.41
2023-03-30T03:52:25.305Z,96377.69
2023-03-30T03:54:52.801Z,96379.91
2023-03-30T03:57:20.378Z,96370.84
2023-03-30T03:59:47.997Z,96373.03
2023-03-30T04:02:15.688Z,96355.31
2023-03-30T04:04:44.767Z,96345.44
2023-03-30T04:07:13.236Z,96332.97
2023-03-30T04:09:40.770Z,96332.53
2023-03-30T04:12:08.351Z,96322.91
2023-03-30T04:14:35.938Z,96318.84
2023-03-30T04:17:03.751Z,96319.69
2023-03-30T04:19:31.554Z,96312.41
2023-03-30T04:22:00.454Z,96302.56
2023-03-30T04:24:29.770Z,96292.69
2023-03-30T04:26:57.589Z,96295.13
2023-03-30T04:29:25.235Z,96284.25
2023-03-30T04:31:52.924Z,96284.25
2023-03-30T04:34:21.933Z,96284.88
2023-03-30T04:36:49.680Z,96286.28
2023-03-30T04:39:20.807Z,96285.69
2023-03-30T04:41:48.354Z,96274.41
2023-03-30T04:44:20.353Z,96279.84
2023-03-30T04:46:47.867Z,96268.56
2023-03-30T04:49:15.370Z,96271.38
2023-03-30T04:51:43.210Z,96269.78
2023-03-30T04:54:10.722Z,96277.22
2023-03-30T04:56:39.596Z,96274.22
2023-03-30T04:59:07.271Z,96274.22
2023-03-30T05:01:34.824Z,96260.31
2023-03-30T05:04:02.340Z,96264.97
2023-03-30T05:06:29.856Z,96268.16
2023-03-30T05:08:57.798Z,96261.53
2023-03-30T05:11:26.110Z,96248.06
2023-03-30T05:13:55.058Z,96246.03
2023-03-30T05:16:22.700Z,96234.16
2023-03-30T05:18:51.706Z,96235.56
2023-03-30T05:21:19.506Z,96232.16
2023-03-30T05:23:46.969Z,96222.91
2023-03-30T05:26:14.529Z,96208.63
2023-03-30T05:28:43.010Z,96198.97
2023-03-30T05:31:11.926Z,96194.56
2023-03-30T05:33:40.873Z,96186.91
2023-03-30T05:36:11.586Z,96191.34
2023-03-30T05:38:39.264Z,96196.56
2023-03-30T05:41:07.672Z,96206.19
2023-03-30T05:43:35.375Z,96210.03
2023-03-30T05:46:03.440Z,96218.28
2023-03-30T05:48:32.406Z,96203.41
2023-03-30T05:51:01.807Z,96196.94
2023-03-30T05:53:29.985Z,96207.81
2023-03-30T05:55:57.521Z,96213.44
2023-03-30T06:01:09.419Z,96219.47
2023-03-30T06:03:38.953Z,96226.13
2023-03-30T06:06:07.919Z,96221.69
2023-03-30T06:08:35.687Z,96224.31
2023-03-30T06:11:03.399Z,96221.88
2023-03-30T06:13:31.743Z,96210.81
2023-03-30T06:16:00.845Z,96206.59
2023-03-30T06:18:30.757Z,96206.59
2023-03-30T06:21:02.540Z,96202.97
2023-03-30T06:23:30.526Z,96204.59
2023-03-30T06:25:59.572Z,96201.97
2023-03-30T06:28:27.244Z,96208.44
2023-03-30T06:30:54.757Z,96208.00
2023-03-30T06:33:22.277Z,96206.00
2023-03-30T06:35:51.509Z,96195.34
2023-03-30T06:38:21.742Z,96200.97
2023-03-30T06:40:51.337Z,96193.72
2023-03-30T06:43:21.209Z,96210.03
2023-03-30T06:45:52.928Z,96187.31
2023-03-30T06:48:22.504Z,96182.47
2023-03-30T06:50:50.199Z,96205.41
2023-03-30T06:53:18.197Z,96215.47
2023-03-30T06:55:52.544Z,96224.91
2023-03-30T06:58:20.736Z,96232.75
2023-03-30T07:00:48.969Z,96246.44
2023-03-30T07:03:18.642Z,96245.22
2023-03-30T07:05:48.332Z,96253.88
2023-03-30T07:08:15.904Z,96260.31
2023-03-30T07:10:43.734Z,96252.09
2023-03-30T07:13:12.578Z,96252.47
2023-03-30T07:15:40.104Z,96265.97
2023-03-30T07:18:08.244Z,96264.75
2023-03-30T07:20:36.307Z,96250.69
2023-03-30T07:23:04.116Z,96251.66
2023-03-30T07:25:32.539Z,96252.47
2023-03-30T07:28:00.123Z,96245.22
2023-03-30T07:30:28.962Z,96249.66
2023-03-30T07:32:58.308Z,96251.28
2023-03-30T07:35:26.982Z,96256.09
2023-03-30T07:38:02.927Z,96241.00
2023-03-30T07:40:31.652Z,96252.50
2023-03-30T07:42:59.232Z,96251.66
2023-03-30T07:45:27.063Z,96274.19
2023-03-30T07:47:56.012Z,96285.47
2023-03-30T07:50:25.539Z,96295.31
2023-03-30T07:52:53.255Z,96312.22
2023-03-30T07:55:21.079Z,96324.94
2023-03-30T07:57:48.951Z,96332.97
2023-03-30T08:00:17.194Z,96335.78
2023-03-30T08:02:45.044Z,96343.84
2023-03-30T08:05:15.660Z,96348.22
2023-03-30T08:07:43.302Z,96357.28
2023-03-30T08:10:11.405Z,96361.53
2023-03-30T08:12:38.939Z,96373.00
2023-03-30T08:15:07.436Z,96382.88
2023-03-30T08:17:35.069Z,96382.91
2023-03-30T08:20:03.207Z,96387.53
2023-03-30T08:22:32.181Z,96386.75
2023-03-30T08:24:59.696Z,96382.72
2023-03-30T08:27:27.354Z,96366.22
2023-03-30T08:29:55.006Z,96344.66
2023-03-30T08:32:22.533Z,96310.81
2023-03-30T08:34:50.277Z,96314.63
2023-03-30T08:37:17.837Z,96324.91
2023-03-30T08:39:46.666Z,96330.50
2023-03-30T08:42:32.979Z,96340.94
2023-03-30T08:45:05.146Z,96339.28
2023-03-30T08:47:35.725Z,96353.81
2023-03-30T08:50:09.514Z,96368.34
2023-03-30T08:52:37.941Z,96378.03
2023-03-30T08:55:10.433Z,96380.09
2023-03-30T08:57:47.181Z,96393.00
2023-03-30T09:00:27.485Z,96394.59
2023-03-30T09:03:03.110Z,96396.81
2023-03-30T09:05:32.739Z,96395.00
2023-03-30T09:08:10.344Z,96405.84
2023-03-30T09:10:44.996Z,96406.28
2023-03-30T09:13:17.194Z,96398.22
2023-03-30T09:15:50.016Z,96400.25
2023-03-30T09:18:22.102Z,96407.50
2023-03-30T09:20:53.662Z,96418.78
2023-03-30T09:23:21.567Z,96426.81
2023-03-30T09:26:01.273Z,96436.91
2023-03-30T09:28:35.477Z,96436.06
2023-03-30T09:31:05.785Z,96432.44
2023-03-30T09:33:46.383Z,96414.31
2023-03-30T09:36:19.061Z,96406.88
2023-03-30T09:38:46.591Z,96400.81
2023-03-30T09:41:42.716Z,96424.00
2023-03-30T09:44:19.705Z,96412.13
2023-03-30T09:46:49.925Z,96407.28
2023-03-30T09:49:17.993Z,96394.19
2023-03-30T09:52:01.382Z,96408.72
2023-03-30T09:54:36.704Z,96397.03
2023-03-30T09:57:06.288Z,96390.16
2023-03-30T09:59:36.393Z,96387.53
2023-03-30T10:02:18.183Z,96353.91
2023-03-30T10:05:02.225Z,96363.97
2023-03-30T10:07:33.164Z,96347.88
2023-03-30T10:10:03.152Z,96338.59
2023-03-30T10:12:32.151Z,96342.25
2023-03-30T10:15:04.174Z,96320.69
2023-03-30T10:17:32.482Z,96326.72
2023-03-30T10:20:18.225Z,96345.84
2023-03-30T10:22:51.596Z,96345.84
2023-03-30T10:25:23.577Z,96355.13
2023-03-30T10:27:55.813Z,96350.69
2023-03-30T10:30:27.048Z,96354.31
2023-03-30T10:32:57.007Z,96363.97
2023-03-30T10:35:27.245Z,96363.00
2023-03-30T10:37:58.586Z,96362.78
2023-03-30T10:40:32.536Z,96360.75
2023-03-30T10:43:02.222Z,96358.75
2023-03-30T10:45:35.634Z,96363.59
2023-03-30T10:48:20.201Z,96355.13
2023-03-30T10:50:56.381Z,96360.56
2023-03-30T10:53:38.440Z,96371.44
2023-03-30T10:56:28.422Z,96389.53
2023-03-30T10:59:14.158Z,96367.59
2023-03-30T11:01:55.395Z,96369.41
2023-03-30T11:04:29.019Z,96376.06
2023-03-30T11:06:59.691Z,96367.59
2023-03-30T11:09:32.735Z,96363.94
2023-03-30T11:12:04.293Z,96354.06
2023-03-30T11:14:42.248Z,96353.09
2023-03-30T11:17:17.906Z,96342.59
2023-03-30T11:19:50.797Z,96345.03
2023-03-30T11:22:31.361Z,96351.47
2023-03-30T11:25:00.587Z,96346.44
2023-03-30T11:27:31.786Z,96344.19
2023-03-30T11:30:09.027Z,96345.19
2023-03-30T11:32:42.836Z,96338.13
2023-03-30T11:35:17.160Z,96342.59
2023-03-30T11:37:53.196Z,96345.41
2023-03-30T11:40:25.569Z,96355.09
2023-03-30T11:42:54.718Z,96349.03
2023-03-30T11:45:44.795Z,96354.28
2023-03-30T11:48:35.944Z,96344.81
2023-03-30T11:51:16.544Z,96364.75
2023-03-30T11:53:54.393Z,96369.41
2023-03-30T11:56:32.856Z,96357.91
2023-03-30T11:59:05.873Z,96355.09
2023-03-30T12:01:56.889Z,96358.50
2023-03-30T12:04:29.411Z,96359.53
2023-03-30T12:06:59.116Z,96368.97
2023-03-30T12:09:30.039Z,96361.34
2023-03-30T12:12:06.134Z,96366.34
2023-03-30T12:14:51.641Z,96364.34
2023-03-30T12:17:33.179Z,96358.91
2023-03-30T12:20:06.662Z,96364.75
2023-03-30T12:22:41.272Z,96374.00
2023-03-30T12:25:23.201Z,96374.81
2023-03-30T12:27:59.612Z,96388.50
2023-03-30T12:30:29.346Z,96377.22
2023-03-30T12:33:04.538Z,96369.56
2023-03-30T12:35:59.853Z,96369.56
2023-03-30T12:38:38.216Z,96370.59
2023-03-30T12:41:14.550Z,96361.09
2023-03-30T12:44:08.959Z,96374.22
2023-03-30T12:46:43.158Z,96371.38
2023-03-30T12:49:23.189Z,96360.72
2023-03-30T12:52:09.513Z,96348.22
2023-03-30T12:54:54.361Z,96353.44
2023-03-30T12:57:38.488Z,96354.25
2023-03-30T13:00:26.582Z,96334.06
2023-03-30T13:03:06.922Z,96338.53
2023-03-30T13:05:41.089Z,96320.78
2023-03-30T13:08:20.082Z,96324.00
2023-03-30T13:10:47.650Z,96303.81
2023-03-30T13:13:24.065Z,96299.19
2023-03-30T13:15:54.618Z,96316.31
2023-03-30T13:18:53.849Z,96298.56
2023-03-30T13:21:26.688Z,96309.84
2023-03-30T13:24:21.906Z,96313.84
2023-03-30T13:26:50.947Z,96306.59
2023-03-30T13:29:18.834Z,96297.72
2023-03-30T13:32:03.677Z,96299.72
2023-03-30T13:34:55.172Z,96292.84
2023-03-30T13:38:05.237Z,96291.16
2023-03-30T13:40:48.806Z,96286.47
2023-03-30T13:43:39.828Z,96292.25
2023-03-30T13:46:17.332Z,96282.38
2023-03-30T13:49:06.521Z,96263.16
2023-03-30T13:51:35.384Z,96268.16
2023-03-30T13:54:08.562Z,96269.88
2023-03-30T13:56:40.319Z,96264.56
2023-03-30T13:59:13.069Z,96251.63
2023-03-30T14:01:41.694Z,96261.03
2023-03-30T14:04:13.602Z,96264.50
2023-03-30T14:06:45.679Z,96243.03
2023-03-30T14:09:19.595Z,96243.19
2023-03-30T14:11:49.356Z,96226.00
2023-03-30T14:14:20.459Z,96226.38
2023-03-30T14:16:48.105Z,96211.41
2023-03-30T14:19:24.821Z,96217.25
2023-03-30T14:21:56.910Z,96216.38
2023-03-30T14:24:30.855Z,96225.00
2023-03-30T14:27:07.034Z,96215.66
2023-03-30T14:29:35.332Z,96191.00
2023-03-30T14:32:08.876Z,96222.06
2023-03-30T14:34:37.582Z,96206.69
2023-03-30T14:37:07.390Z,96221.78
2023-03-30T14:39:42.575Z,96206.63
2023-03-30T14:42:16.795Z,96208.78
2023-03-30T14:44:46.465Z,96224.34
2023-03-30T14:47:14.924Z,96214.63
2023-03-30T14:49:44.954Z,96217.84
2023-03-30T14:52:17.924Z,96209.31
2023-03-30T14:55:02.355Z,96207.63
2023-03-30T14:57:40.373Z,96203.50
2023-03-30T15:00:21.809Z,96194.75
2023-03-30T15:02:53.815Z,96193.84
2023-03-30T15:05:25.497Z,96186.91
2023-03-30T15:07:54.597Z,96192.97
2023-03-30T15:10:39.463Z,96213.88
2023-03-30T15:13:16.413Z,96194.97
2023-03-30T15:15:55.961Z,96201.91
2023-03-30T15:18:37.488Z,96210.00
2023-03-30T15:21:18.329Z,96213.97
2023-03-30T15:27:23.929Z,96218.56
2023-03-30T15:33:19.595Z,96236.50
2023-03-30T15:43:28.039Z,96271.78
2023-03-30T15:45:57.153Z,96277.09
2023-03-30T15:48:29.011Z,96282.91
2023-03-30T15:51:04.240Z,96274.56
2023-03-30T15:53:41.872Z,96282.94
2023-03-30T15:56:13.924Z,96286.03
2023-03-30T15:58:43.570Z,96263.88
2023-03-30T16:01:15.333Z,96263.72
2023-03-30T16:03:52.259Z,96258.69
2023-03-30T16:06:21.444Z,96257.44
2023-03-30T16:08:49.410Z,96249.00
2023-03-30T16:11:18.641Z,96251.00
2023-03-30T16:13:49.784Z,96239.94
2023-03-30T16:16:18.462Z,96248.22
2023-03-30T16:18:46.331Z,96240.19
2023-03-30T16:21:15.695Z,96245.25
2023-03-30T16:23:43.324Z,96249.88
2023-03-30T16:26:12.158Z,96237.00
2023-03-30T16:28:42.559Z,96242.44
2023-03-30T16:31:19.454Z,96248.72
2023-03-30T16:33:47.596Z,96269.66
2023-03-30T16:36:25.484Z,96259.38
2023-03-30T16:38:53.054Z,96269.66
2023-03-30T16:41:22.093Z,96267.22
2023-03-30T16:43:50.335Z,96264.00
2023-03-30T16:46:20.966Z,96273.28
2023-03-30T16:48:49.139Z,96272.69
2023-03-30T16:51:17.938Z,96266.44
2023-03-30T16:53:45.629Z,96266.44
2023-03-30T16:56:17.413Z,96272.50
2023-03-30T16:58:45.471Z,96262.22
2023-03-30T17:01:15.805Z,96266.25
2023-03-30T17:03:45.730Z,96266.25
2023-03-30T17:06:14.145Z,96266.84
2023-03-30T17:08:43.034Z,96258.78
2023-03-30T17:11:13.553Z,96262.81
2023-03-30T17:13:41.566Z,96273.28
2023-03-30T17:16:10.164Z,96270.88
2023-03-30T17:18:38.069Z,96274.31
2023-03-30T17:21:09.411Z,96277.13
2023-03-30T17:23:37.123Z,96271.88
2023-03-30T17:26:09.086Z,96278.56
2023-03-30T17:28:38.636Z,96282.34
2023-03-30T17:31:16.983Z,96285.19
2023-03-30T17:33:51.973Z,96288.41
2023-03-30T17:36:27.111Z,96288.25
2023-03-30T17:38:56.736Z,96286.00
2023-03-30T17:41:39.052Z,96287.03
2023-03-30T17:44:12.626Z,96297.91
2023-03-30T17:46:44.905Z,96301.97
2023-03-30T17:49:28.204Z,96304.97
2023-03-30T17:51:57.757Z,96310.41
2023-03-30T17:54:30.358Z,96306.38
2023-03-30T17:56:58.381Z,96316.06
2023-03-30T17:59:29.202Z,96318.25
2023-03-30T18:01:57.875Z,96320.88
2023-03-30T18:04:25.618Z,96319.28
2023-03-30T18:06:53.189Z,96318.88
2023-03-30T18:09:22.101Z,96318.09
2023-03-30T18:11:49.661Z,96315.88
2023-03-30T18:14:17.385Z,96315.28
2023-03-30T18:16:45.983Z,96319.69
2023-03-30T18:19:13.815Z,96329.56
2023-03-30T18:21:41.782Z,96331.16
2023-03-30T18:24:09.854Z,96334.81
2023-03-30T18:26:40.996Z,96342.84
2023-03-30T18:29:19.886Z,96343.66
2023-03-30T18:31:47.723Z,96342.25
2023-03-30T18:34:15.629Z,96344.25
2023-03-30T18:36:43.208Z,96334.78
2023-03-30T18:39:18.551Z,96338.22
2023-03-30T18:41:47.411Z,96335.63
2023-03-30T18:44:14.912Z,96343.66
2023-03-30T18:46:42.594Z,96354.13
2023-03-30T18:49:13.486Z,96348.28
2023-03-30T18:51:41.118Z,96344.69
2023-03-30T18:54:08.980Z,96352.53
2023-03-30T18:56:37.424Z,96352.53
2023-03-30T18:59:06.377Z,96357.75
2023-03-30T19:01:33.989Z,96356.75
2023-03-30T19:04:01.716Z,96358.75
2023-03-30T19:06:29.266Z,96357.75
2023-03-30T19:08:57.601Z,96360.75
2023-03-30T19:11:27.213Z,96358.34
2023-03-30T19:13:54.803Z,96357.53
2023-03-30T19:16:23.759Z,96358.75
2023-03-30T19:18:51.352Z,96358.56
2023-03-30T19:21:19.683Z,96358.75
2023-03-30T19:23:47.517Z,96359.78
2023-03-30T19:26:15.118Z,96346.28
2023-03-30T19:28:42.746Z,96356.13
2023-03-30T19:31:15.520Z,96361.97
2023-03-30T19:33:44.717Z,96362.78
2023-03-30T19:36:12.314Z,96366.59
2023-03-30T19:38:39.864Z,96360.75
2023-03-30T19:41:07.850Z,96365.78
2023-03-30T19:43:35.671Z,96372.81
2023-03-30T19:46:03.499Z,96370.19
2023-03-30T19:48:30.990Z,96370.00
2023-03-30T19:51:00.171Z,96364.78
2023-03-30T19:53:27.740Z,96357.94
2023-03-30T20:02:31.989Z,96356.72
2023-03-30T20:04:59.599Z,96356.13
2023-03-30T20:07:28.499Z,96363.16
2023-03-30T20:09:56.028Z,96354.91
2023-03-30T20:12:23.555Z,96350.47
2023-03-30T20:14:51.035Z,96353.25
2023-03-30T20:17:21.825Z,96355.06
2023-03-30T20:19:49.437Z,96351.66
2023-03-30T20:22:17.176Z,96349.06
2023-03-30T20:24:46.139Z,96351.47
2023-03-30T20:27:13.718Z,96348.25
2023-03-30T20:29:41.243Z,96350.25
2023-03-30T20:32:08.791Z,96360.28
2023-03-30T20:34:36.614Z,96346.81
2023-03-30T20:37:04.163Z,96347.81
2023-03-30T20:39:34.234Z,96344.19
2023-03-30T20:42:08.223Z,96343.97
2023-03-30T20:44:37.870Z,96347.00
2023-03-30T20:47:05.543Z,96349.19
2023-03-30T20:49:33.503Z,96349.78
2023-03-30T20:52:01.637Z,96351.34
2023-03-30T20:54:29.716Z,96347.28
2023-03-30T20:56:58.165Z,96340.81
2023-03-30T20:59:27.131Z,96337.38
2023-03-30T21:01:58.968Z,96342.78
2023-03-30T21:04:27.185Z,96338.59
2023-03-30T21:06:54.810Z,96336.94
2023-03-30T21:09:22.356Z,96331.88
2023-03-30T21:11:50.452Z,96329.03
2023-03-30T21:14:18.057Z,96327.00
2023-03-30T21:16:47.073Z,96322.97
2023-03-30T21:19:14.580Z,96330.19
2023-03-30T21:21:42.076Z,96333.34
2023-03-30T21:24:12.187Z,96335.50
2023-03-30T21:26:40.365Z,96320.84
2023-03-30T21:29:07.896Z,96319.22
2023-03-30T21:31:35.566Z,96331.66
2023-03-30T21:34:04.542Z,96335.06
2023-03-30T21:36:32.130Z,96330.19
2023-03-30T21:39:00.767Z,96320.16
2023-03-30T21:41:29.403Z,96320.50
2023-03-30T21:43:56.978Z,96319.28
2023-03-30T21:46:26.575Z,96310.66
2023-03-30T21:48:54.525Z,96314.44
2023-03-30T21:51:26.375Z,96314.22
2023-03-30T21:53:55.805Z,96303.34
2023-03-30T21:56:24.978Z,96299.31
2023-03-30T21:58:53.229Z,96294.88
2023-03-30T22:01:23.735Z,96298.47
2023-03-30T22:03:51.815Z,96289.47
2023-03-30T22:06:19.782Z,96282.44
2023-03-30T22:08:48.848Z,96282.03
2023-03-30T22:11:18.973Z,96264.41
2023-03-30T22:13:48.477Z,96273.84
2023-03-30T22:16:18.585Z,96252.53
2023-03-30T22:18:47.315Z,96259.56
2023-03-30T22:21:17.248Z,96248.34
2023-03-30T22:23:45.168Z,96249.13
2023-03-30T22:26:14.560Z,96244.34
2023-03-30T22:28:42.529Z,96243.56
2023-03-30T22:31:11.160Z,96235.38
2023-03-30T22:33:39.288Z,96227.94
2023-03-30T22:36:14.867Z,96220.34
2023-03-30T22:38:42.802Z,96223.81
2023-03-30T22:41:10.374Z,96224.41
2023-03-30T22:43:39.419Z,96220.59
2023-03-30T22:46:07.551Z,96214.78
2023-03-30T22:48:35.684Z,96214.78
2023-03-30T22:51:03.798Z,96212.81
2023-03-30T22:53:32.076Z,96205.97
2023-03-30T22:55:59.761Z,96208.97
2023-03-30T22:58:27.836Z,96213.56
2023-03-30T23:01:01.880Z,96203.09
2023-03-30T23:03:29.566Z,96205.50
2023-03-30T23:06:00.797Z,96201.47
2023-03-30T23:08:29.433Z,96192.84
2023-03-30T23:10:57.599Z,96178.19
2023-03-30T23:13:25.110Z,96178.56
2023-03-30T23:15:52.635Z,96175.13
2023-03-30T23:18:21.692Z,96184.16
2023-03-30T23:20:49.203Z,96177.72
2023-03-30T23:23:16.707Z,96180.09
2023-03-30T23:25:49.306Z,96169.47
2023-03-30T23:28:17.534Z,96167.44
2023-03-30T23:30:45.718Z,96162.59
2023-03-30T23:33:13.428Z,96160.38
2023-03-30T23:35:49.532Z,96153.53
2023-03-30T23:38:17.141Z,96147.50
2023-03-30T23:40:44.981Z,96147.69
2023-03-30T23:43:12.562Z,96149.91
2023-03-30T23:45:43.613Z,96150.66
2023-03-30T23:48:11.282Z,96143.84
2023-03-30T23:50:38.840Z,96140.06
2023-03-30T23:53:07.941Z,96143.03
2023-03-30T23:55:35.484Z,96139.19
2023-03-30T23:58:03.021Z,96145.19
